createdAt,value
2024-02-14T00:01:47.709Z,100.00
2024-02-14T00:06:50.613Z,100.00
2024-02-14T00:11:53.605Z,100.00
2024-02-14T00:16:58.038Z,100.00
2024-02-14T00:22:01.573Z,100.00
2024-02-14T00:27:04.905Z,100.00
2024-02-14T00:32:08.238Z,100.00
2024-02-14T00:37:12.464Z,100.00
2024-02-14T00:42:15.515Z,100.00
2024-02-14T00:47:18.397Z,100.00
2024-02-14T00:52:25.996Z,100.00
2024-02-14T00:57:30.025Z,100.00
2024-02-14T01:02:33.324Z,100.00
2024-02-14T01:07:37.198Z,100.00
2024-02-14T01:12:41.174Z,100.00
2024-02-14T01:17:44.271Z,100.00
2024-02-14T01:22:47.544Z,100.00
2024-02-14T01:27:50.433Z,100.00
2024-02-14T01:32:54.327Z,100.00
2024-02-14T01:37:58.597Z,100.00
2024-02-14T01:43:02.254Z,100.00
2024-02-14T01:48:07.752Z,100.00
2024-02-14T01:53:11.190Z,100.00
2024-02-14T01:58:15.255Z,100.00
2024-02-14T02:03:18.823Z,100.00
2024-02-14T02:08:22.530Z,100.00
2024-02-14T02:13:26.933Z,100.00
2024-02-14T02:18:29.914Z,100.00
2024-02-14T02:23:32.953Z,100.00
2024-02-14T02:28:35.819Z,100.00
2024-02-14T02:33:38.872Z,100.00
2024-02-14T02:38:41.960Z,100.00
2024-02-14T02:43:44.864Z,100.00
2024-02-14T02:48:49.002Z,100.00
2024-02-14T02:53:54.967Z,100.00
2024-02-14T02:58:58.497Z,100.00
2024-02-14T03:04:01.439Z,100.00
2024-02-14T03:09:04.482Z,100.00
2024-02-14T03:14:09.077Z,100.00
2024-02-14T03:19:11.940Z,100.00
2024-02-14T03:24:15.710Z,100.00
2024-02-14T03:29:20.695Z,100.00
2024-02-14T03:34:23.676Z,100.00
2024-02-14T03:39:26.655Z,100.00
2024-02-14T03:44:29.612Z,100.00
2024-02-14T03:49:32.831Z,100.00
2024-02-14T03:54:35.716Z,100.00
2024-02-14T03:59:40.432Z,100.00
2024-02-14T04:04:43.589Z,100.00
2024-02-14T04:09:46.560Z,100.00
2024-02-14T04:14:49.876Z,100.00
2024-02-14T04:19:52.936Z,100.00
2024-02-14T04:24:57.458Z,100.00
2024-02-14T04:30:03.526Z,100.00
2024-02-14T04:35:06.753Z,100.00
2024-02-14T04:40:11.297Z,100.00
2024-02-14T04:45:14.886Z,100.00
2024-02-14T04:50:17.983Z,100.00
2024-02-14T04:55:21.488Z,100.00
2024-02-14T05:00:24.539Z,100.00
2024-02-14T05:05:27.679Z,100.00
2024-02-14T05:10:30.985Z,100.00
2024-02-14T05:15:36.358Z,100.00
2024-02-14T05:20:39.533Z,100.00
2024-02-14T05:25:42.664Z,100.00
2024-02-14T05:30:46.189Z,100.00
2024-02-14T05:35:50.610Z,100.00
2024-02-14T05:40:55.204Z,100.00
2024-02-14T05:45:58.110Z,100.00
2024-02-14T05:51:01.026Z,100.00
2024-02-14T05:56:04.362Z,100.00
2024-02-14T06:01:07.580Z,100.00
2024-02-14T06:06:13.086Z,100.00
2024-02-14T06:11:17.357Z,100.00
2024-02-14T06:16:20.217Z,100.00
2024-02-14T06:21:23.127Z,100.00
2024-02-14T06:26:27.536Z,100.00
2024-02-14T06:31:30.545Z,100.00
2024-02-14T06:36:33.744Z,100.00
2024-02-14T06:41:37.063Z,100.00
2024-02-14T06:46:40.403Z,100.00
2024-02-14T06:51:45.010Z,100.00
2024-02-14T06:56:49.756Z,100.00
2024-02-14T07:02:12.474Z,100.00
2024-02-14T07:07:19.573Z,100.00
2024-02-14T07:12:28.090Z,100.00
2024-02-14T07:17:37.347Z,100.00
2024-02-14T07:23:03.719Z,100.00
2024-02-14T07:28:26.818Z,100.00
2024-02-14T07:33:37.917Z,100.00
2024-02-14T07:38:45.824Z,100.00
2024-02-14T07:43:48.840Z,100.00
2024-02-14T07:48:51.784Z,99.55
2024-02-14T07:53:56.324Z,99.74
2024-02-14T07:59:01.003Z,100.00
2024-02-14T08:04:06.045Z,100.00
2024-02-14T08:09:11.808Z,99.79
2024-02-14T08:14:15.687Z,96.96
2024-02-14T08:19:20.080Z,96.33
2024-02-14T08:24:24.423Z,93.97
2024-02-14T08:29:30.613Z,95.45
2024-02-14T08:34:33.736Z,92.89
2024-02-14T08:39:38.042Z,91.21
2024-02-14T08:44:41.862Z,87.58
2024-02-14T08:49:45.104Z,84.78
2024-02-14T08:54:53.247Z,83.44
2024-02-14T08:59:58.558Z,83.11
2024-02-14T09:05:05.071Z,82.97
2024-02-14T09:10:09.441Z,81.71
2024-02-14T09:15:13.148Z,82.41
2024-02-14T09:20:18.778Z,85.35
2024-02-14T09:25:26.108Z,85.47
2024-02-14T09:30:35.398Z,84.45
2024-02-14T09:35:45.758Z,83.67
2024-02-14T09:40:54.960Z,81.38
2024-02-14T09:45:59.713Z,79.75
2024-02-14T09:51:03.925Z,79.87
2024-02-14T09:56:07.736Z,79.75
2024-02-14T10:01:11.254Z,79.79
2024-02-14T10:06:17.299Z,77.64
2024-02-14T10:11:22.876Z,75.40
2024-02-14T10:16:27.355Z,75.51
2024-02-14T10:21:35.512Z,76.49
2024-02-14T10:31:42.585Z,77.74
2024-02-14T10:36:48.651Z,76.00
2024-02-14T10:41:55.834Z,76.98
2024-02-14T10:47:08.574Z,77.69
2024-02-14T10:52:13.105Z,77.37
2024-02-14T10:57:18.937Z,76.26
2024-02-14T11:02:23.727Z,75.95
2024-02-14T11:07:29.960Z,76.01
2024-02-14T11:12:38.175Z,75.35
2024-02-14T11:17:42.588Z,75.86
2024-02-14T11:22:59.496Z,74.99
2024-02-14T11:28:21.140Z,75.54
2024-02-14T11:33:28.896Z,74.91
2024-02-14T11:38:35.380Z,74.67
2024-02-14T11:43:41.117Z,74.22
2024-02-14T11:48:48.985Z,73.73
2024-02-14T11:53:52.962Z,72.64
2024-02-14T11:59:07.577Z,71.53
2024-02-14T12:04:20.666Z,72.02
2024-02-14T12:09:42.769Z,71.68
2024-02-14T12:15:16.188Z,72.61
2024-02-14T12:20:55.618Z,72.48
2024-02-14T12:26:09.861Z,72.72
2024-02-14T12:31:23.337Z,72.85
2024-02-14T12:36:30.203Z,73.47
2024-02-14T12:41:37.144Z,72.92
2024-02-14T12:46:40.297Z,73.40
2024-02-14T12:51:43.799Z,73.33
2024-02-14T12:56:46.801Z,73.26
2024-02-14T13:01:52.725Z,72.23
2024-02-14T13:07:01.612Z,70.22
2024-02-14T13:12:16.894Z,71.39
2024-02-14T13:17:24.533Z,71.66
2024-02-14T13:22:28.075Z,69.95
2024-02-14T13:27:31.205Z,69.40
2024-02-14T13:32:34.433Z,69.40
2024-02-14T13:37:38.135Z,69.51
2024-02-14T13:42:41.479Z,68.56
2024-02-14T13:47:45.101Z,68.47
2024-02-14T13:52:48.786Z,69.40
2024-02-14T13:57:52.250Z,68.50
2024-02-14T14:02:56.849Z,68.54
2024-02-14T14:08:01.871Z,69.21
2024-02-14T14:13:05.135Z,68.94
2024-02-14T14:18:09.827Z,69.70
2024-02-14T14:23:14.653Z,69.77
2024-02-14T14:28:18.752Z,69.18
2024-02-14T14:33:22.895Z,68.23
2024-02-14T14:38:27.847Z,68.32
2024-02-14T14:43:30.883Z,69.22
2024-02-14T14:48:37.050Z,69.22
2024-02-14T14:53:40.529Z,69.49
2024-02-14T14:58:44.223Z,69.58
2024-02-14T15:03:47.757Z,70.18
2024-02-14T15:08:50.764Z,71.03
2024-02-14T15:13:54.320Z,71.50
2024-02-14T15:18:57.450Z,71.81
2024-02-14T15:24:00.512Z,72.15
2024-02-14T15:29:22.365Z,72.69
2024-02-14T15:34:25.954Z,73.22
2024-02-14T15:39:28.949Z,73.97
2024-02-14T15:44:31.908Z,74.25
2024-02-14T15:49:36.790Z,74.47
2024-02-14T15:54:45.542Z,75.46
2024-02-14T15:59:48.708Z,76.09
2024-02-14T16:04:51.712Z,76.30
2024-02-14T16:09:54.562Z,76.62
2024-02-14T16:14:58.697Z,76.39
2024-02-14T16:20:01.780Z,76.40
2024-02-14T16:25:08.789Z,76.60
2024-02-14T16:30:11.802Z,76.65
2024-02-14T16:35:14.876Z,77.00
2024-02-14T16:40:17.973Z,77.36
2024-02-14T16:45:21.736Z,77.60
2024-02-14T16:50:26.390Z,78.00
2024-02-14T16:55:29.264Z,78.24
2024-02-14T17:00:32.874Z,78.41
2024-02-14T17:05:37.471Z,78.49
2024-02-14T17:10:40.843Z,78.92
2024-02-14T17:15:43.985Z,78.99
2024-02-14T17:20:48.190Z,79.12
2024-02-14T17:25:51.387Z,79.25
2024-02-14T17:30:54.253Z,79.62
2024-02-14T17:35:57.835Z,79.89
2024-02-14T17:41:01.613Z,79.91
2024-02-14T17:46:07.617Z,80.19
2024-02-14T17:51:11.624Z,80.62
2024-02-14T17:56:17.285Z,80.94
2024-02-14T18:01:20.431Z,80.92
2024-02-14T18:06:25.020Z,81.27
2024-02-14T18:11:28.668Z,81.58
2024-02-14T18:16:32.297Z,81.69
2024-02-14T18:21:35.142Z,81.96
2024-02-14T18:26:38.986Z,82.25
2024-02-14T18:31:41.958Z,82.55
2024-02-14T18:36:45.063Z,82.52
2024-02-14T18:41:47.980Z,82.64
2024-02-14T18:46:52.937Z,82.88
2024-02-14T18:51:55.822Z,83.08
2024-02-14T18:56:59.583Z,83.12
2024-02-14T19:02:09.558Z,83.18
2024-02-14T19:07:12.769Z,83.27
2024-02-14T19:12:15.801Z,83.62
2024-02-14T19:17:18.983Z,83.68
2024-02-14T19:22:22.464Z,83.63
2024-02-14T19:27:25.477Z,83.81
2024-02-14T19:32:28.839Z,84.02
2024-02-14T19:37:34.081Z,84.02
2024-02-14T19:42:37.793Z,84.14
2024-02-14T19:47:41.072Z,84.11
2024-02-14T19:52:44.763Z,84.19
2024-02-14T19:57:47.624Z,84.52
2024-02-14T20:02:50.497Z,84.40
2024-02-14T20:07:53.982Z,84.33
2024-02-14T20:12:56.953Z,84.27
2024-02-14T20:18:00.941Z,84.34
2024-02-14T20:23:04.122Z,84.47
2024-02-14T20:28:06.991Z,84.26
2024-02-14T20:33:09.877Z,84.25
2024-02-14T20:38:12.903Z,84.26
2024-02-14T20:43:15.806Z,84.39
2024-02-14T20:48:19.330Z,84.40
2024-02-14T20:53:22.414Z,84.39
2024-02-14T20:58:27.078Z,84.29
2024-02-14T21:03:32.731Z,84.28
2024-02-14T21:08:35.970Z,84.23
2024-02-14T21:13:39.030Z,84.22
2024-02-14T21:18:42.492Z,84.03
2024-02-14T21:23:46.863Z,84.19
2024-02-14T21:28:49.826Z,84.31
2024-02-14T21:33:52.836Z,84.38
2024-02-14T21:38:55.839Z,84.19
2024-02-14T21:44:01.657Z,84.15
2024-02-14T21:49:07.688Z,84.19
2024-02-14T21:54:11.329Z,84.21
2024-02-14T21:59:14.225Z,84.20
2024-02-14T22:04:17.847Z,84.21
2024-02-14T22:09:22.279Z,84.26
2024-02-14T22:14:25.747Z,84.24
2024-02-14T22:19:29.282Z,84.14
2024-02-14T22:24:33.588Z,84.29
2024-02-14T22:29:39.418Z,84.04
2024-02-14T22:34:43.772Z,83.96
2024-02-14T22:39:48.273Z,83.74
2024-02-14T22:44:52.563Z,83.76
2024-02-14T22:49:55.893Z,83.60
2024-02-14T22:54:59.412Z,83.41
2024-02-14T23:00:06.793Z,83.55
2024-02-14T23:05:15.561Z,83.44
2024-02-14T23:10:18.910Z,83.44
2024-02-14T23:15:21.906Z,83.12
2024-02-14T23:20:25.014Z,82.83
2024-02-14T23:25:31.918Z,82.73
2024-02-14T23:30:36.345Z,82.46
2024-02-14T23:35:43.595Z,82.39
2024-02-14T23:40:46.724Z,82.27
2024-02-14T23:45:49.641Z,82.26
2024-02-14T23:50:53.038Z,82.07
2024-02-14T23:55:57.986Z,82.07
